sensor_id;sensor_type;location;lat;lon;timestamp;P1;durP1;ratioP1;P2;durP2;ratioP2
22439;SDS011;11387;51.612;7.210;2023-08-12T00:00:09;12.48;;;9.23;;
22439;SDS011;11387;51.612;7.210;2023-08-12T00:02:39;13.93;;;9.43;;
22439;SDS011;11387;51.612;7.210;2023-08-12T00:05:09;12.68;;;9.02;;
22439;SDS011;11387;51.612;7.210;2023-08-12T00:07:39;11.20;;;9.02;;
22439;SDS011;11387;51.612;7.210;2023-08-12T00:10:09;11.57;;;8.90;;
22439;SDS011;11387;51.612;7.210;2023-08-12T00:12:39;10.25;;;7.72;;
22439;SDS011;11387;51.612;7.210;2023-08-12T00:15:08;9.00;;;7.45;;
22439;SDS011;11387;51.612;7.210;2023-08-12T00:17:37;13.90;;;8.20;;
22439;SDS011;11387;51.612;7.210;2023-08-12T00:20:11;11.63;;;8.98;;
22439;SDS011;11387;51.612;7.210;2023-08-12T00:22:40;13.65;;;8.80;;
22439;SDS011;11387;51.612;7.210;2023-08-12T00:25:08;14.25;;;8.60;;
22439;SDS011;11387;51.612;7.210;2023-08-12T00:27:37;11.57;;;8.50;;
22439;SDS011;11387;51.612;7.210;2023-08-12T00:30:06;14.93;;;9.63;;
22439;SDS011;11387;51.612;7.210;2023-08-12T00:32:35;10.20;;;8.63;;
22439;SDS011;11387;51.612;7.210;2023-08-12T00:35:04;14.20;;;9.30;;
22439;SDS011;11387;51.612;7.210;2023-08-12T00:37:34;13.80;;;8.90;;
22439;SDS011;11387;51.612;7.210;2023-08-12T00:40:03;16.15;;;10.18;;
22439;SDS011;11387;51.612;7.210;2023-08-12T00:42:33;16.95;;;10.18;;
22439;SDS011;11387;51.612;7.210;2023-08-12T00:45:02;16.67;;;10.82;;
22439;SDS011;11387;51.612;7.210;2023-08-12T00:47:31;15.20;;;10.75;;
22439;SDS011;11387;51.612;7.210;2023-08-12T00:49:59;15.43;;;11.07;;
22439;SDS011;11387;51.612;7.210;2023-08-12T00:52:28;13.68;;;10.52;;
22439;SDS011;11387;51.612;7.210;2023-08-12T00:54:58;19.88;;;12.30;;
22439;SDS011;11387;51.612;7.210;2023-08-12T00:57:27;16.00;;;10.85;;
22439;SDS011;11387;51.612;7.210;2023-08-12T00:59:55;14.25;;;10.13;;
22439;SDS011;11387;51.612;7.210;2023-08-12T01:02:25;15.18;;;11.55;;
22439;SDS011;11387;51.612;7.210;2023-08-12T01:04:55;16.05;;;11.93;;
22439;SDS011;11387;51.612;7.210;2023-08-12T01:07:23;15.35;;;10.98;;
22439;SDS011;11387;51.612;7.210;2023-08-12T01:09:52;20.63;;;13.40;;
22439;SDS011;11387;51.612;7.210;2023-08-12T01:12:24;19.77;;;12.85;;
22439;SDS011;11387;51.612;7.210;2023-08-12T01:14:58;16.80;;;12.68;;
22439;SDS011;11387;51.612;7.210;2023-08-12T01:17:33;17.00;;;12.20;;
22439;SDS011;11387;51.612;7.210;2023-08-12T01:20:04;19.02;;;14.05;;
22439;SDS011;11387;51.612;7.210;2023-08-12T01:22:37;17.75;;;14.50;;
22439;SDS011;11387;51.612;7.210;2023-08-12T01:25:08;20.90;;;14.98;;
22439;SDS011;11387;51.612;7.210;2023-08-12T01:27:37;18.67;;;15.05;;
22439;SDS011;11387;51.612;7.210;2023-08-12T01:30:08;26.05;;;17.00;;
22439;SDS011;11387;51.612;7.210;2023-08-12T01:32:39;26.55;;;17.83;;
22439;SDS011;11387;51.612;7.210;2023-08-12T01:35:13;22.45;;;17.88;;
22439;SDS011;11387;51.612;7.210;2023-08-12T01:37:45;28.42;;;19.42;;
22439;SDS011;11387;51.612;7.210;2023-08-12T01:40:18;26.83;;;19.15;;
22439;SDS011;11387;51.612;7.210;2023-08-12T01:42:47;28.88;;;18.05;;
22439;SDS011;11387;51.612;7.210;2023-08-12T01:45:17;26.77;;;19.35;;
22439;SDS011;11387;51.612;7.210;2023-08-12T01:47:46;25.95;;;20.05;;
22439;SDS011;11387;51.612;7.210;2023-08-12T01:50:17;29.17;;;20.70;;
22439;SDS011;11387;51.612;7.210;2023-08-12T01:52:48;31.15;;;22.55;;
22439;SDS011;11387;51.612;7.210;2023-08-12T01:55:18;32.80;;;21.95;;
22439;SDS011;11387;51.612;7.210;2023-08-12T01:57:47;37.55;;;24.58;;
22439;SDS011;11387;51.612;7.210;2023-08-12T02:00:16;31.45;;;23.98;;
22439;SDS011;11387;51.612;7.210;2023-08-12T02:02:44;35.85;;;24.83;;
22439;SDS011;11387;51.612;7.210;2023-08-12T02:05:14;34.85;;;25.55;;
22439;SDS011;11387;51.612;7.210;2023-08-12T02:07:43;36.83;;;24.58;;
22439;SDS011;11387;51.612;7.210;2023-08-12T02:10:12;39.90;;;26.38;;
22439;SDS011;11387;51.612;7.210;2023-08-12T02:12:43;35.47;;;25.05;;
22439;SDS011;11387;51.612;7.210;2023-08-12T02:15:12;36.33;;;27.10;;
22439;SDS011;11387;51.612;7.210;2023-08-12T02:17:40;40.10;;;26.63;;
22439;SDS011;11387;51.612;7.210;2023-08-12T02:20:10;42.05;;;26.95;;
22439;SDS011;11387;51.612;7.210;2023-08-12T02:22:39;42.17;;;27.23;;
22439;SDS011;11387;51.612;7.210;2023-08-12T02:25:08;43.65;;;26.85;;
22439;SDS011;11387;51.612;7.210;2023-08-12T02:27:36;41.08;;;27.83;;
22439;SDS011;11387;51.612;7.210;2023-08-12T02:30:07;47.28;;;28.90;;
22439;SDS011;11387;51.612;7.210;2023-08-12T02:32:38;44.35;;;30.00;;
22439;SDS011;11387;51.612;7.210;2023-08-12T02:35:25;40.65;;;29.70;;
22439;SDS011;11387;51.612;7.210;2023-08-12T02:37:53;47.70;;;29.38;;
22439;SDS011;11387;51.612;7.210;2023-08-12T02:40:22;51.10;;;31.35;;
22439;SDS011;11387;51.612;7.210;2023-08-12T02:42:50;54.83;;;32.45;;
22439;SDS011;11387;51.612;7.210;2023-08-12T02:45:20;51.50;;;32.58;;
22439;SDS011;11387;51.612;7.210;2023-08-12T02:47:49;46.13;;;32.53;;
22439;SDS011;11387;51.612;7.210;2023-08-12T02:50:17;59.05;;;34.67;;
22439;SDS011;11387;51.612;7.210;2023-08-12T02:52:46;51.78;;;34.70;;
22439;SDS011;11387;51.612;7.210;2023-08-12T02:55:14;60.40;;;35.30;;
22439;SDS011;11387;51.612;7.210;2023-08-12T02:57:43;57.45;;;35.38;;
22439;SDS011;11387;51.612;7.210;2023-08-12T03:00:12;50.58;;;33.83;;
22439;SDS011;11387;51.612;7.210;2023-08-12T03:02:43;54.22;;;33.13;;
22439;SDS011;11387;51.612;7.210;2023-08-12T03:05:12;54.38;;;31.75;;
22439;SDS011;11387;51.612;7.210;2023-08-12T03:07:40;48.35;;;31.23;;
22439;SDS011;11387;51.612;7.210;2023-08-12T03:10:12;52.88;;;34.90;;
22439;SDS011;11387;51.612;7.210;2023-08-12T03:12:41;54.45;;;33.58;;
22439;SDS011;11387;51.612;7.210;2023-08-12T03:15:10;47.72;;;32.80;;
22439;SDS011;11387;51.612;7.210;2023-08-12T03:17:39;47.53;;;34.35;;
22439;SDS011;11387;51.612;7.210;2023-08-12T03:20:10;46.88;;;32.50;;
22439;SDS011;11387;51.612;7.210;2023-08-12T03:22:39;57.60;;;34.42;;
22439;SDS011;11387;51.612;7.210;2023-08-12T03:25:27;51.53;;;33.25;;
22439;SDS011;11387;51.612;7.210;2023-08-12T03:27:56;50.65;;;32.53;;
22439;SDS011;11387;51.612;7.210;2023-08-12T03:30:25;50.13;;;33.00;;
22439;SDS011;11387;51.612;7.210;2023-08-12T03:32:53;55.88;;;33.25;;
22439;SDS011;11387;51.612;7.210;2023-08-12T03:35:23;50.03;;;33.35;;
22439;SDS011;11387;51.612;7.210;2023-08-12T03:37:52;51.53;;;32.40;;
22439;SDS011;11387;51.612;7.210;2023-08-12T03:40:21;51.75;;;33.28;;
22439;SDS011;11387;51.612;7.210;2023-08-12T03:42:49;54.35;;;33.92;;
22439;SDS011;11387;51.612;7.210;2023-08-12T03:45:18;54.47;;;32.65;;
22439;SDS011;11387;51.612;7.210;2023-08-12T03:47:46;56.90;;;34.70;;
22439;SDS011;11387;51.612;7.210;2023-08-12T03:50:15;53.28;;;33.88;;
22439;SDS011;11387;51.612;7.210;2023-08-12T03:52:45;49.90;;;33.10;;
22439;SDS011;11387;51.612;7.210;2023-08-12T03:55:14;51.60;;;32.28;;
22439;SDS011;11387;51.612;7.210;2023-08-12T03:57:43;52.03;;;33.03;;
22439;SDS011;11387;51.612;7.210;2023-08-12T04:00:12;52.38;;;33.83;;
22439;SDS011;11387;51.612;7.210;2023-08-12T04:02:41;53.63;;;34.00;;
22439;SDS011;11387;51.612;7.210;2023-08-12T04:05:10;46.40;;;32.10;;
22439;SDS011;11387;51.612;7.210;2023-08-12T04:07:39;48.63;;;32.17;;
22439;SDS011;11387;51.612;7.210;2023-08-12T04:10:09;53.33;;;33.88;;
22439;SDS011;11387;51.612;7.210;2023-08-12T04:12:42;54.58;;;32.22;;
22439;SDS011;11387;51.612;7.210;2023-08-12T04:15:14;50.78;;;31.80;;
22439;SDS011;11387;51.612;7.210;2023-08-12T04:17:44;53.00;;;32.65;;
22439;SDS011;11387;51.612;7.210;2023-08-12T04:20:16;54.15;;;31.75;;
22439;SDS011;11387;51.612;7.210;2023-08-12T04:22:48;49.15;;;30.00;;
22439;SDS011;11387;51.612;7.210;2023-08-12T04:25:18;45.45;;;29.05;;
22439;SDS011;11387;51.612;7.210;2023-08-12T04:27:46;54.13;;;30.35;;
22439;SDS011;11387;51.612;7.210;2023-08-12T04:30:18;42.15;;;28.98;;
22439;SDS011;11387;51.612;7.210;2023-08-12T04:32:47;42.00;;;28.30;;
22439;SDS011;11387;51.612;7.210;2023-08-12T04:35:19;42.83;;;28.88;;
22439;SDS011;11387;51.612;7.210;2023-08-12T04:37:49;45.38;;;29.25;;
22439;SDS011;11387;51.612;7.210;2023-08-12T04:40:22;47.05;;;29.08;;
22439;SDS011;11387;51.612;7.210;2023-08-12T04:42:50;39.97;;;28.05;;
22439;SDS011;11387;51.612;7.210;2023-08-12T04:47:57;44.83;;;28.53;;
22439;SDS011;11387;51.612;7.210;2023-08-12T04:50:29;45.60;;;28.88;;
22439;SDS011;11387;51.612;7.210;2023-08-12T04:52:58;40.75;;;26.27;;
22439;SDS011;11387;51.612;7.210;2023-08-12T04:55:28;39.25;;;25.80;;
22439;SDS011;11387;51.612;7.210;2023-08-12T04:57:56;39.58;;;26.45;;
22439;SDS011;11387;51.612;7.210;2023-08-12T05:00:25;35.92;;;25.33;;
22439;SDS011;11387;51.612;7.210;2023-08-12T05:03:00;42.33;;;26.70;;
22439;SDS011;11387;51.612;7.210;2023-08-12T05:05:28;36.88;;;25.58;;
22439;SDS011;11387;51.612;7.210;2023-08-12T05:08:00;36.28;;;24.67;;
22439;SDS011;11387;51.612;7.210;2023-08-12T05:10:32;35.53;;;25.33;;
22439;SDS011;11387;51.612;7.210;2023-08-12T05:13:03;38.03;;;24.42;;
22439;SDS011;11387;51.612;7.210;2023-08-12T05:15:31;35.72;;;23.70;;
22439;SDS011;11387;51.612;7.210;2023-08-12T05:18:04;34.20;;;23.95;;
22439;SDS011;11387;51.612;7.210;2023-08-12T05:20:39;38.33;;;23.05;;
22439;SDS011;11387;51.612;7.210;2023-08-12T05:23:13;32.05;;;24.27;;
22439;SDS011;11387;51.612;7.210;2023-08-12T05:25:46;33.20;;;22.13;;
22439;SDS011;11387;51.612;7.210;2023-08-12T05:28:16;36.22;;;22.60;;
22439;SDS011;11387;51.612;7.210;2023-08-12T05:30:48;28.52;;;21.60;;
22439;SDS011;11387;51.612;7.210;2023-08-12T05:33:20;30.92;;;23.35;;
22439;SDS011;11387;51.612;7.210;2023-08-12T05:35:49;31.95;;;21.30;;
22439;SDS011;11387;51.612;7.210;2023-08-12T05:38:24;29.42;;;21.42;;
22439;SDS011;11387;51.612;7.210;2023-08-12T05:40:54;25.25;;;19.65;;
22439;SDS011;11387;51.612;7.210;2023-08-12T05:43:29;37.20;;;21.33;;
22439;SDS011;11387;51.612;7.210;2023-08-12T05:45:57;21.90;;;17.92;;
22439;SDS011;11387;51.612;7.210;2023-08-12T05:48:26;24.85;;;19.60;;
22439;SDS011;11387;51.612;7.210;2023-08-12T05:50:56;26.33;;;17.75;;
22439;SDS011;11387;51.612;7.210;2023-08-12T05:53:25;30.50;;;18.73;;
22439;SDS011;11387;51.612;7.210;2023-08-12T05:55:59;24.80;;;18.52;;
22439;SDS011;11387;51.612;7.210;2023-08-12T05:58:28;31.20;;;19.33;;
22439;SDS011;11387;51.612;7.210;2023-08-12T06:00:57;26.13;;;18.25;;
22439;SDS011;11387;51.612;7.210;2023-08-12T06:03:26;26.63;;;18.73;;
22439;SDS011;11387;51.612;7.210;2023-08-12T06:05:56;32.38;;;18.45;;
22439;SDS011;11387;51.612;7.210;2023-08-12T06:08:27;28.20;;;18.55;;
22439;SDS011;11387;51.612;7.210;2023-08-12T06:10:59;22.05;;;17.67;;
22439;SDS011;11387;51.612;7.210;2023-08-12T06:13:28;24.73;;;18.08;;
22439;SDS011;11387;51.612;7.210;2023-08-12T06:16:17;27.95;;;17.60;;
22439;SDS011;11387;51.612;7.210;2023-08-12T06:18:47;21.42;;;17.75;;
22439;SDS011;11387;51.612;7.210;2023-08-12T06:21:16;22.17;;;16.30;;
22439;SDS011;11387;51.612;7.210;2023-08-12T06:23:44;22.50;;;15.88;;
22439;SDS011;11387;51.612;7.210;2023-08-12T06:26:17;26.23;;;16.58;;
22439;SDS011;11387;51.612;7.210;2023-08-12T06:28:46;20.05;;;16.52;;
22439;SDS011;11387;51.612;7.210;2023-08-12T06:31:14;25.08;;;16.70;;
22439;SDS011;11387;51.612;7.210;2023-08-12T06:33:43;19.10;;;14.35;;
22439;SDS011;11387;51.612;7.210;2023-08-12T06:36:11;28.85;;;18.10;;
22439;SDS011;11387;51.612;7.210;2023-08-12T06:38:40;23.95;;;15.02;;
22439;SDS011;11387;51.612;7.210;2023-08-12T06:41:09;19.15;;;15.35;;
22439;SDS011;11387;51.612;7.210;2023-08-12T06:43:41;22.38;;;15.73;;
22439;SDS011;11387;51.612;7.210;2023-08-12T06:46:10;18.92;;;15.68;;
22439;SDS011;11387;51.612;7.210;2023-08-12T06:48:39;20.73;;;15.57;;
22439;SDS011;11387;51.612;7.210;2023-08-12T06:51:08;27.35;;;15.48;;
22439;SDS011;11387;51.612;7.210;2023-08-12T06:53:38;22.05;;;14.80;;
22439;SDS011;11387;51.612;7.210;2023-08-12T06:56:07;25.30;;;15.65;;
22439;SDS011;11387;51.612;7.210;2023-08-12T06:58:36;22.73;;;16.15;;
22439;SDS011;11387;51.612;7.210;2023-08-12T07:01:06;23.17;;;15.23;;
22439;SDS011;11387;51.612;7.210;2023-08-12T07:03:35;20.40;;;15.98;;
22439;SDS011;11387;51.612;7.210;2023-08-12T07:06:04;21.17;;;15.98;;
22439;SDS011;11387;51.612;7.210;2023-08-12T07:08:32;21.00;;;15.40;;
22439;SDS011;11387;51.612;7.210;2023-08-12T07:11:01;20.73;;;13.38;;
22439;SDS011;11387;51.612;7.210;2023-08-12T07:13:29;20.55;;;13.90;;
22439;SDS011;11387;51.612;7.210;2023-08-12T07:15:58;17.98;;;14.77;;
22439;SDS011;11387;51.612;7.210;2023-08-12T07:18:28;16.85;;;14.27;;
22439;SDS011;11387;51.612;7.210;2023-08-12T07:20:58;18.33;;;13.23;;
22439;SDS011;11387;51.612;7.210;2023-08-12T07:23:27;22.27;;;13.63;;
22439;SDS011;11387;51.612;7.210;2023-08-12T07:25:55;14.93;;;10.73;;
22439;SDS011;11387;51.612;7.210;2023-08-12T07:28:24;16.08;;;10.02;;
22439;SDS011;11387;51.612;7.210;2023-08-12T07:30:53;13.68;;;10.35;;
22439;SDS011;11387;51.612;7.210;2023-08-12T07:33:21;13.77;;;9.85;;
22439;SDS011;11387;51.612;7.210;2023-08-12T07:35:53;13.20;;;9.07;;
22439;SDS011;11387;51.612;7.210;2023-08-12T07:38:21;15.23;;;9.82;;
22439;SDS011;11387;51.612;7.210;2023-08-12T07:40:50;12.32;;;9.70;;
22439;SDS011;11387;51.612;7.210;2023-08-12T07:43:18;11.93;;;8.25;;
22439;SDS011;11387;51.612;7.210;2023-08-12T07:45:50;12.00;;;7.32;;
22439;SDS011;11387;51.612;7.210;2023-08-12T07:48:35;11.30;;;7.43;;
22439;SDS011;11387;51.612;7.210;2023-08-12T07:51:07;13.23;;;6.47;;
22439;SDS011;11387;51.612;7.210;2023-08-12T07:53:35;12.18;;;7.15;;
22439;SDS011;11387;51.612;7.210;2023-08-12T07:56:18;11.27;;;6.55;;
22439;SDS011;11387;51.612;7.210;2023-08-12T07:58:47;12.27;;;7.55;;
22439;SDS011;11387;51.612;7.210;2023-08-12T08:01:15;12.75;;;7.68;;
22439;SDS011;11387;51.612;7.210;2023-08-12T08:03:44;12.65;;;7.57;;
22439;SDS011;11387;51.612;7.210;2023-08-12T08:06:14;14.23;;;7.00;;
22439;SDS011;11387;51.612;7.210;2023-08-12T08:08:43;10.68;;;6.72;;
22439;SDS011;11387;51.612;7.210;2023-08-12T08:11:12;11.07;;;5.88;;
22439;SDS011;11387;51.612;7.210;2023-08-12T08:13:40;9.27;;;5.65;;
22439;SDS011;11387;51.612;7.210;2023-08-12T08:16:09;11.25;;;5.13;;
22439;SDS011;11387;51.612;7.210;2023-08-12T08:18:38;9.45;;;4.80;;
22439;SDS011;11387;51.612;7.210;2023-08-12T08:21:07;6.30;;;4.57;;
22439;SDS011;11387;51.612;7.210;2023-08-12T08:23:37;9.35;;;4.97;;
22439;SDS011;11387;51.612;7.210;2023-08-12T08:26:05;5.35;;;3.97;;
22439;SDS011;11387;51.612;7.210;2023-08-12T08:28:34;10.23;;;4.88;;
22439;SDS011;11387;51.612;7.210;2023-08-12T08:31:02;6.03;;;3.38;;
22439;SDS011;11387;51.612;7.210;2023-08-12T08:33:31;6.53;;;4.05;;
22439;SDS011;11387;51.612;7.210;2023-08-12T08:36:00;5.72;;;3.97;;
22439;SDS011;11387;51.612;7.210;2023-08-12T08:38:28;7.97;;;4.53;;
22439;SDS011;11387;51.612;7.210;2023-08-12T08:41:23;5.47;;;4.45;;
22439;SDS011;11387;51.612;7.210;2023-08-12T08:43:52;7.55;;;4.45;;
22439;SDS011;11387;51.612;7.210;2023-08-12T08:46:24;7.47;;;4.68;;
22439;SDS011;11387;51.612;7.210;2023-08-12T08:48:52;7.00;;;4.95;;
22439;SDS011;11387;51.612;7.210;2023-08-12T08:51:23;6.18;;;4.53;;
22439;SDS011;11387;51.612;7.210;2023-08-12T08:53:53;6.63;;;4.47;;
22439;SDS011;11387;51.612;7.210;2023-08-12T08:56:30;7.75;;;5.10;;
22439;SDS011;11387;51.612;7.210;2023-08-12T08:59:01;6.68;;;3.97;;
22439;SDS011;11387;51.612;7.210;2023-08-12T09:01:29;7.50;;;4.70;;
22439;SDS011;11387;51.612;7.210;2023-08-12T09:03:59;6.28;;;4.38;;
22439;SDS011;11387;51.612;7.210;2023-08-12T09:06:30;6.65;;;5.10;;
22439;SDS011;11387;51.612;7.210;2023-08-12T09:09:00;6.70;;;4.28;;
22439;SDS011;11387;51.612;7.210;2023-08-12T09:11:44;6.82;;;4.45;;
22439;SDS011;11387;51.612;7.210;2023-08-12T09:14:13;7.43;;;4.65;;
22439;SDS011;11387;51.612;7.210;2023-08-12T09:16:41;6.65;;;4.78;;
22439;SDS011;11387;51.612;7.210;2023-08-12T09:19:10;7.90;;;4.32;;
22439;SDS011;11387;51.612;7.210;2023-08-12T09:21:40;8.57;;;4.10;;
22439;SDS011;11387;51.612;7.210;2023-08-12T09:24:09;5.25;;;4.05;;
22439;SDS011;11387;51.612;7.210;2023-08-12T09:26:38;6.40;;;4.47;;
22439;SDS011;11387;51.612;7.210;2023-08-12T09:29:07;7.55;;;4.95;;
22439;SDS011;11387;51.612;7.210;2023-08-12T09:31:36;5.95;;;4.53;;
22439;SDS011;11387;51.612;7.210;2023-08-12T09:34:05;6.55;;;4.00;;
22439;SDS011;11387;51.612;7.210;2023-08-12T09:36:34;5.05;;;4.38;;
22439;SDS011;11387;51.612;7.210;2023-08-12T09:39:05;7.03;;;4.82;;
22439;SDS011;11387;51.612;7.210;2023-08-12T09:41:38;6.53;;;4.38;;
22439;SDS011;11387;51.612;7.210;2023-08-12T09:44:10;6.57;;;5.32;;
22439;SDS011;11387;51.612;7.210;2023-08-12T09:46:39;8.98;;;5.28;;
22439;SDS011;11387;51.612;7.210;2023-08-12T09:49:08;5.50;;;4.70;;
22439;SDS011;11387;51.612;7.210;2023-08-12T09:51:37;6.80;;;4.35;;
22439;SDS011;11387;51.612;7.210;2023-08-12T09:54:08;6.65;;;4.93;;
22439;SDS011;11387;51.612;7.210;2023-08-12T09:56:40;6.80;;;4.22;;
22439;SDS011;11387;51.612;7.210;2023-08-12T09:59:12;6.57;;;4.40;;
22439;SDS011;11387;51.612;7.210;2023-08-12T10:01:49;5.78;;;3.58;;
22439;SDS011;11387;51.612;7.210;2023-08-12T10:04:19;6.65;;;4.10;;
22439;SDS011;11387;51.612;7.210;2023-08-12T10:06:51;4.45;;;2.85;;
22439;SDS011;11387;51.612;7.210;2023-08-12T10:09:20;8.10;;;3.90;;
22439;SDS011;11387;51.612;7.210;2023-08-12T10:11:49;5.63;;;3.97;;
22439;SDS011;11387;51.612;7.210;2023-08-12T10:16:58;4.53;;;3.17;;
22439;SDS011;11387;51.612;7.210;2023-08-12T10:19:32;8.60;;;4.72;;
22439;SDS011;11387;51.612;7.210;2023-08-12T10:22:03;8.32;;;4.40;;
22439;SDS011;11387;51.612;7.210;2023-08-12T10:24:31;8.05;;;5.40;;
22439;SDS011;11387;51.612;7.210;2023-08-12T10:27:02;7.97;;;4.90;;
22439;SDS011;11387;51.612;7.210;2023-08-12T10:29:32;5.22;;;4.20;;
22439;SDS011;11387;51.612;7.210;2023-08-12T10:32:03;6.22;;;4.20;;
22439;SDS011;11387;51.612;7.210;2023-08-12T10:34:32;5.75;;;4.50;;
22439;SDS011;11387;51.612;7.210;2023-08-12T10:37:01;5.20;;;3.55;;
22439;SDS011;11387;51.612;7.210;2023-08-12T10:39:31;5.53;;;3.90;;
22439;SDS011;11387;51.612;7.210;2023-08-12T10:42:01;9.65;;;4.95;;
22439;SDS011;11387;51.612;7.210;2023-08-12T10:44:39;6.28;;;3.92;;
22439;SDS011;11387;51.612;7.210;2023-08-12T10:47:17;5.70;;;4.22;;
22439;SDS011;11387;51.612;7.210;2023-08-12T10:49:47;8.00;;;4.30;;
22439;SDS011;11387;51.612;7.210;2023-08-12T10:52:26;7.38;;;3.58;;
22439;SDS011;11387;51.612;7.210;2023-08-12T10:57:43;5.72;;;3.60;;
22439;SDS011;11387;51.612;7.210;2023-08-12T11:00:15;6.35;;;4.00;;
22439;SDS011;11387;51.612;7.210;2023-08-12T11:02:44;3.70;;;3.28;;
22439;SDS011;11387;51.612;7.210;2023-08-12T11:05:14;4.47;;;3.33;;
22439;SDS011;11387;51.612;7.210;2023-08-12T11:07:43;5.13;;;3.97;;
22439;SDS011;11387;51.612;7.210;2023-08-12T11:10:14;6.13;;;4.20;;
22439;SDS011;11387;51.612;7.210;2023-08-12T11:12:47;5.40;;;3.92;;
22439;SDS011;11387;51.612;7.210;2023-08-12T11:15:30;4.70;;;3.65;;
22439;SDS011;11387;51.612;7.210;2023-08-12T11:18:01;4.10;;;3.30;;
22439;SDS011;11387;51.612;7.210;2023-08-12T11:20:32;6.13;;;3.03;;
22439;SDS011;11387;51.612;7.210;2023-08-12T11:23:02;6.78;;;3.55;;
22439;SDS011;11387;51.612;7.210;2023-08-12T11:25:31;6.18;;;3.03;;
22439;SDS011;11387;51.612;7.210;2023-08-12T11:28:01;6.38;;;3.20;;
22439;SDS011;11387;51.612;7.210;2023-08-12T11:30:33;4.20;;;3.53;;
22439;SDS011;11387;51.612;7.210;2023-08-12T11:33:02;11.68;;;3.53;;
22439;SDS011;11387;51.612;7.210;2023-08-12T11:35:31;4.88;;;3.00;;
22439;SDS011;11387;51.612;7.210;2023-08-12T11:38:00;5.38;;;3.20;;
22439;SDS011;11387;51.612;7.210;2023-08-12T11:40:29;4.00;;;3.30;;
22439;SDS011;11387;51.612;7.210;2023-08-12T11:42:58;5.03;;;3.08;;
22439;SDS011;11387;51.612;7.210;2023-08-12T11:45:27;4.63;;;3.17;;
22439;SDS011;11387;51.612;7.210;2023-08-12T11:47:57;3.78;;;2.67;;
22439;SDS011;11387;51.612;7.210;2023-08-12T11:50:26;4.00;;;2.97;;
22439;SDS011;11387;51.612;7.210;2023-08-12T11:52:55;3.40;;;2.42;;
22439;SDS011;11387;51.612;7.210;2023-08-12T11:55:24;4.57;;;3.03;;
22439;SDS011;11387;51.612;7.210;2023-08-12T11:57:53;3.33;;;2.58;;
22439;SDS011;11387;51.612;7.210;2023-08-12T12:00:24;4.22;;;2.28;;
22439;SDS011;11387;51.612;7.210;2023-08-12T12:02:54;3.58;;;2.08;;
22439;SDS011;11387;51.612;7.210;2023-08-12T12:05:26;3.95;;;2.63;;
22439;SDS011;11387;51.612;7.210;2023-08-12T12:07:59;2.92;;;2.40;;
22439;SDS011;11387;51.612;7.210;2023-08-12T12:10:29;3.03;;;2.30;;
22439;SDS011;11387;51.612;7.210;2023-08-12T12:13:02;2.72;;;2.13;;
22439;SDS011;11387;51.612;7.210;2023-08-12T12:15:37;2.50;;;2.05;;
22439;SDS011;11387;51.612;7.210;2023-08-12T12:18:09;3.95;;;2.30;;
22439;SDS011;11387;51.612;7.210;2023-08-12T12:20:53;2.90;;;2.45;;
22439;SDS011;11387;51.612;7.210;2023-08-12T12:23:26;4.90;;;2.47;;
22439;SDS011;11387;51.612;7.210;2023-08-12T12:25:56;3.58;;;2.88;;
22439;SDS011;11387;51.612;7.210;2023-08-12T12:28:26;5.95;;;2.70;;
22439;SDS011;11387;51.612;7.210;2023-08-12T12:30:55;5.43;;;3.13;;
22439;SDS011;11387;51.612;7.210;2023-08-12T12:33:43;4.13;;;3.30;;
22439;SDS011;11387;51.612;7.210;2023-08-12T12:36:13;4.50;;;3.30;;
22439;SDS011;11387;51.612;7.210;2023-08-12T12:38:42;4.88;;;3.85;;
22439;SDS011;11387;51.612;7.210;2023-08-12T12:41:11;7.80;;;4.15;;
22439;SDS011;11387;51.612;7.210;2023-08-12T12:43:40;8.05;;;4.30;;
22439;SDS011;11387;51.612;7.210;2023-08-12T12:46:08;7.00;;;5.63;;
22439;SDS011;11387;51.612;7.210;2023-08-12T12:48:37;5.78;;;4.50;;
22439;SDS011;11387;51.612;7.210;2023-08-12T12:51:08;6.03;;;4.60;;
22439;SDS011;11387;51.612;7.210;2023-08-12T12:53:38;4.50;;;3.92;;
22439;SDS011;11387;51.612;7.210;2023-08-12T12:56:06;5.93;;;4.53;;
22439;SDS011;11387;51.612;7.210;2023-08-12T12:58:35;7.40;;;3.80;;
22439;SDS011;11387;51.612;7.210;2023-08-12T13:01:05;7.75;;;4.68;;
22439;SDS011;11387;51.612;7.210;2023-08-12T13:03:34;4.97;;;4.47;;
22439;SDS011;11387;51.612;7.210;2023-08-12T13:06:05;6.15;;;4.72;;
22439;SDS011;11387;51.612;7.210;2023-08-12T13:08:34;7.78;;;5.28;;
22439;SDS011;11387;51.612;7.210;2023-08-12T13:11:04;7.47;;;6.57;;
22439;SDS011;11387;51.612;7.210;2023-08-12T13:13:33;6.18;;;5.60;;
22439;SDS011;11387;51.612;7.210;2023-08-12T13:16:01;8.85;;;6.90;;
22439;SDS011;11387;51.612;7.210;2023-08-12T13:18:33;9.50;;;6.75;;
22439;SDS011;11387;51.612;7.210;2023-08-12T13:21:02;8.35;;;7.32;;
22439;SDS011;11387;51.612;7.210;2023-08-12T13:23:33;8.30;;;6.95;;
22439;SDS011;11387;51.612;7.210;2023-08-12T13:26:01;8.88;;;7.88;;
22439;SDS011;11387;51.612;7.210;2023-08-12T13:28:32;9.75;;;8.57;;
22439;SDS011;11387;51.612;7.210;2023-08-12T13:31:02;10.23;;;8.35;;
22439;SDS011;11387;51.612;7.210;2023-08-12T13:33:31;8.77;;;7.97;;
22439;SDS011;11387;51.612;7.210;2023-08-12T13:35:59;20.23;;;9.77;;
22439;SDS011;11387;51.612;7.210;2023-08-12T13:38:28;10.52;;;9.52;;
22439;SDS011;11387;51.612;7.210;2023-08-12T13:40:57;12.30;;;9.80;;
22439;SDS011;11387;51.612;7.210;2023-08-12T13:43:25;14.40;;;12.90;;
22439;SDS011;11387;51.612;7.210;2023-08-12T13:45:56;17.08;;;13.00;;
22439;SDS011;11387;51.612;7.210;2023-08-12T13:48:25;13.63;;;12.25;;
22439;SDS011;11387;51.612;7.210;2023-08-12T13:50:55;16.00;;;14.30;;
22439;SDS011;11387;51.612;7.210;2023-08-12T13:53:27;17.90;;;15.27;;
22439;SDS011;11387;51.612;7.210;2023-08-12T13:55:58;18.85;;;16.73;;
22439;SDS011;11387;51.612;7.210;2023-08-12T13:58:29;20.08;;;15.77;;
22439;SDS011;11387;51.612;7.210;2023-08-12T14:00:59;15.57;;;13.98;;
22439;SDS011;11387;51.612;7.210;2023-08-12T14:03:28;18.90;;;14.43;;
22439;SDS011;11387;51.612;7.210;2023-08-12T14:06:00;15.43;;;13.38;;
22439;SDS011;11387;51.612;7.210;2023-08-12T14:08:30;17.25;;;15.45;;
22439;SDS011;11387;51.612;7.210;2023-08-12T14:10:59;22.20;;;17.63;;
22439;SDS011;11387;51.612;7.210;2023-08-12T14:13:28;22.52;;;17.73;;
22439;SDS011;11387;51.612;7.210;2023-08-12T14:15:57;23.45;;;17.17;;
22439;SDS011;11387;51.612;7.210;2023-08-12T14:18:27;22.77;;;17.90;;
22439;SDS011;11387;51.612;7.210;2023-08-12T14:20:56;24.67;;;18.70;;
22439;SDS011;11387;51.612;7.210;2023-08-12T14:23:25;19.30;;;16.98;;
22439;SDS011;11387;51.612;7.210;2023-08-12T14:25:55;14.70;;;12.15;;
22439;SDS011;11387;51.612;7.210;2023-08-12T14:28:25;11.35;;;9.52;;
22439;SDS011;11387;51.612;7.210;2023-08-12T14:30:54;10.75;;;8.55;;
22439;SDS011;11387;51.612;7.210;2023-08-12T14:33:23;8.70;;;5.50;;
22439;SDS011;11387;51.612;7.210;2023-08-12T14:35:54;9.95;;;4.10;;
22439;SDS011;11387;51.612;7.210;2023-08-12T14:38:29;6.43;;;4.15;;
22439;SDS011;11387;51.612;7.210;2023-08-12T14:41:26;6.32;;;3.80;;
22439;SDS011;11387;51.612;7.210;2023-08-12T14:43:58;4.30;;;3.25;;
22439;SDS011;11387;51.612;7.210;2023-08-12T14:46:28;5.93;;;2.95;;
22439;SDS011;11387;51.612;7.210;2023-08-12T14:49:00;5.25;;;3.00;;
22439;SDS011;11387;51.612;7.210;2023-08-12T14:51:31;5.90;;;3.05;;
22439;SDS011;11387;51.612;7.210;2023-08-12T14:54:01;5.85;;;3.10;;
22439;SDS011;11387;51.612;7.210;2023-08-12T14:56:39;4.45;;;2.83;;
22439;SDS011;11387;51.612;7.210;2023-08-12T14:59:10;4.93;;;2.92;;